sensor_id;sensor_type;location;lat;lon;timestamp;temperature;humidity
33761;DHT22;20084;47.912;19.044;2023-07-22T00:01:35;18.00;99.90
33761;DHT22;20084;47.912;19.044;2023-07-22T00:04:02;17.90;99.90
33761;DHT22;20084;47.912;19.044;2023-07-22T00:06:28;17.90;99.90
33761;DHT22;20084;47.912;19.044;2023-07-22T00:08:54;17.90;99.90
33761;DHT22;20084;47.912;19.044;2023-07-22T00:11:19;17.90;99.90
33761;DHT22;20084;47.912;19.044;2023-07-22T00:13:45;17.90;99.90
33761;DHT22;20084;47.912;19.044;2023-07-22T00:16:11;17.90;99.90
33761;DHT22;20084;47.912;19.044;2023-07-22T00:18:36;17.90;99.90
33761;DHT22;20084;47.912;19.044;2023-07-22T00:21:02;17.90;99.90
33761;DHT22;20084;47.912;19.044;2023-07-22T00:23:27;17.90;99.90
33761;DHT22;20084;47.912;19.044;2023-07-22T00:25:53;17.80;99.90
33761;DHT22;20084;47.912;19.044;2023-07-22T00:28:18;17.80;99.90
33761;DHT22;20084;47.912;19.044;2023-07-22T00:30:44;17.80;99.90
33761;DHT22;20084;47.912;19.044;2023-07-22T00:33:09;17.80;99.90
33761;DHT22;20084;47.912;19.044;2023-07-22T00:35:35;17.70;99.90
33761;DHT22;20084;47.912;19.044;2023-07-22T00:38:01;17.60;99.90
33761;DHT22;20084;47.912;19.044;2023-07-22T00:40:27;17.60;99.90
33761;DHT22;20084;47.912;19.044;2023-07-22T00:42:53;17.60;99.90
33761;DHT22;20084;47.912;19.044;2023-07-22T00:45:18;17.50;99.90
33761;DHT22;20084;47.912;19.044;2023-07-22T00:47:44;17.60;99.90
33761;DHT22;20084;47.912;19.044;2023-07-22T00:50:10;17.60;99.90
33761;DHT22;20084;47.912;19.044;2023-07-22T00:52:35;17.50;99.90
33761;DHT22;20084;47.912;19.044;2023-07-22T00:55:01;17.50;99.90
33761;DHT22;20084;47.912;19.044;2023-07-22T00:57:27;17.40;99.90
33761;DHT22;20084;47.912;19.044;2023-07-22T00:59:52;17.40;99.90
33761;DHT22;20084;47.912;19.044;2023-07-22T01:02:19;17.30;99.90
33761;DHT22;20084;47.912;19.044;2023-07-22T01:04:44;17.30;99.90
33761;DHT22;20084;47.912;19.044;2023-07-22T01:07:10;17.30;99.90
33761;DHT22;20084;47.912;19.044;2023-07-22T01:09:39;17.30;99.90
33761;DHT22;20084;47.912;19.044;2023-07-22T01:12:05;17.30;99.90
33761;DHT22;20084;47.912;19.044;2023-07-22T01:14:34;17.30;99.90
33761;DHT22;20084;47.912;19.044;2023-07-22T01:17:04;17.30;99.90
33761;DHT22;20084;47.912;19.044;2023-07-22T01:19:30;17.30;99.90
33761;DHT22;20084;47.912;19.044;2023-07-22T01:21:57;17.30;99.90
33761;DHT22;20084;47.912;19.044;2023-07-22T01:24:22;17.30;99.90
33761;DHT22;20084;47.912;19.044;2023-07-22T01:26:48;17.30;99.90
33761;DHT22;20084;47.912;19.044;2023-07-22T01:29:14;17.40;99.90
33761;DHT22;20084;47.912;19.044;2023-07-22T01:31:40;17.30;99.90
33761;DHT22;20084;47.912;19.044;2023-07-22T01:34:06;17.30;99.90
33761;DHT22;20084;47.912;19.044;2023-07-22T01:36:31;17.30;99.90
33761;DHT22;20084;47.912;19.044;2023-07-22T01:38:57;17.30;99.90
33761;DHT22;20084;47.912;19.044;2023-07-22T01:41:23;17.30;99.90
33761;DHT22;20084;47.912;19.044;2023-07-22T01:43:48;17.30;99.90
33761;DHT22;20084;47.912;19.044;2023-07-22T01:46:14;17.30;99.90
33761;DHT22;20084;47.912;19.044;2023-07-22T01:48:40;17.30;99.90
33761;DHT22;20084;47.912;19.044;2023-07-22T01:51:05;17.20;99.90
33761;DHT22;20084;47.912;19.044;2023-07-22T01:53:31;17.20;99.90
33761;DHT22;20084;47.912;19.044;2023-07-22T01:55:57;17.20;99.90
33761;DHT22;20084;47.912;19.044;2023-07-22T01:58:22;17.30;99.90
33761;DHT22;20084;47.912;19.044;2023-07-22T02:00:51;17.30;99.90
33761;DHT22;20084;47.912;19.044;2023-07-22T02:03:16;17.30;99.90
33761;DHT22;20084;47.912;19.044;2023-07-22T02:05:42;17.20;99.90
33761;DHT22;20084;47.912;19.044;2023-07-22T02:08:08;17.20;99.90
33761;DHT22;20084;47.912;19.044;2023-07-22T02:10:34;17.20;99.90
33761;DHT22;20084;47.912;19.044;2023-07-22T02:12:59;17.30;99.90
33761;DHT22;20084;47.912;19.044;2023-07-22T02:15:25;17.20;99.90
33761;DHT22;20084;47.912;19.044;2023-07-22T02:17:51;17.30;99.90
33761;DHT22;20084;47.912;19.044;2023-07-22T02:20:16;17.30;99.90
33761;DHT22;20084;47.912;19.044;2023-07-22T02:22:42;17.30;99.90
33761;DHT22;20084;47.912;19.044;2023-07-22T02:25:08;17.30;99.90
33761;DHT22;20084;47.912;19.044;2023-07-22T02:27:35;17.40;99.90
33761;DHT22;20084;47.912;19.044;2023-07-22T02:30:01;17.40;99.90
33761;DHT22;20084;47.912;19.044;2023-07-22T02:32:28;17.50;99.90
33761;DHT22;20084;47.912;19.044;2023-07-22T02:34:54;17.50;99.90
33761;DHT22;20084;47.912;19.044;2023-07-22T02:37:19;17.60;99.90
33761;DHT22;20084;47.912;19.044;2023-07-22T02:39:45;17.60;99.90
33761;DHT22;20084;47.912;19.044;2023-07-22T02:42:10;17.60;99.90
33761;DHT22;20084;47.912;19.044;2023-07-22T02:44:36;17.70;99.90
33761;DHT22;20084;47.912;19.044;2023-07-22T02:47:02;17.60;99.90
33761;DHT22;20084;47.912;19.044;2023-07-22T02:49:27;17.50;99.90
33761;DHT22;20084;47.912;19.044;2023-07-22T02:51:54;17.50;99.90
33761;DHT22;20084;47.912;19.044;2023-07-22T02:54:19;17.40;99.90
33761;DHT22;20084;47.912;19.044;2023-07-22T02:56:45;17.30;99.90
33761;DHT22;20084;47.912;19.044;2023-07-22T02:59:10;17.40;99.90
33761;DHT22;20084;47.912;19.044;2023-07-22T03:01:36;17.40;99.90
33761;DHT22;20084;47.912;19.044;2023-07-22T03:04:01;17.40;99.90
33761;DHT22;20084;47.912;19.044;2023-07-22T03:06:27;17.50;99.90
33761;DHT22;20084;47.912;19.044;2023-07-22T03:08:54;17.50;99.90
33761;DHT22;20084;47.912;19.044;2023-07-22T03:11:19;17.30;99.90
33761;DHT22;20084;47.912;19.044;2023-07-22T03:13:45;17.30;99.90
33761;DHT22;20084;47.912;19.044;2023-07-22T03:16:10;17.20;99.90
33761;DHT22;20084;47.912;19.044;2023-07-22T03:18:36;17.20;99.90
33761;DHT22;20084;47.912;19.044;2023-07-22T03:21:02;17.20;99.90
33761;DHT22;20084;47.912;19.044;2023-07-22T03:23:28;17.20;99.90
33761;DHT22;20084;47.912;19.044;2023-07-22T03:25:54;17.20;99.90
33761;DHT22;20084;47.912;19.044;2023-07-22T03:28:19;17.20;99.90
33761;DHT22;20084;47.912;19.044;2023-07-22T03:30:45;17.20;99.90
33761;DHT22;20084;47.912;19.044;2023-07-22T03:33:10;17.20;99.90
33761;DHT22;20084;47.912;19.044;2023-07-22T03:35:36;17.20;99.90
33761;DHT22;20084;47.912;19.044;2023-07-22T03:38:02;17.20;99.90
33761;DHT22;20084;47.912;19.044;2023-07-22T03:40:27;17.20;99.90
33761;DHT22;20084;47.912;19.044;2023-07-22T03:42:55;17.20;99.90
33761;DHT22;20084;47.912;19.044;2023-07-22T03:45:21;17.20;99.90
33761;DHT22;20084;47.912;19.044;2023-07-22T03:47:51;17.20;99.90
33761;DHT22;20084;47.912;19.044;2023-07-22T03:50:16;17.20;99.90
33761;DHT22;20084;47.912;19.044;2023-07-22T03:52:42;17.20;99.90
33761;DHT22;20084;47.912;19.044;2023-07-22T03:55:07;17.20;99.90
33761;DHT22;20084;47.912;19.044;2023-07-22T03:57:33;17.20;99.90
33761;DHT22;20084;47.912;19.044;2023-07-22T03:59:59;17.20;99.90
33761;DHT22;20084;47.912;19.044;2023-07-22T04:02:25;17.10;99.90
33761;DHT22;20084;47.912;19.044;2023-07-22T04:04:51;17.10;99.90
33761;DHT22;20084;47.912;19.044;2023-07-22T04:07:17;17.10;99.90
33761;DHT22;20084;47.912;19.044;2023-07-22T04:09:43;17.10;99.90
33761;DHT22;20084;47.912;19.044;2023-07-22T04:12:08;17.10;99.90
33761;DHT22;20084;47.912;19.044;2023-07-22T04:14:34;17.10;99.90
33761;DHT22;20084;47.912;19.044;2023-07-22T04:16:59;17.10;99.90
33761;DHT22;20084;47.912;19.044;2023-07-22T04:19:25;17.20;99.90
33761;DHT22;20084;47.912;19.044;2023-07-22T04:21:50;17.20;99.90
33761;DHT22;20084;47.912;19.044;2023-07-22T04:24:16;17.30;99.90
33761;DHT22;20084;47.912;19.044;2023-07-22T04:26:42;17.30;99.90
33761;DHT22;20084;47.912;19.044;2023-07-22T04:29:08;17.40;99.90
33761;DHT22;20084;47.912;19.044;2023-07-22T04:31:33;17.40;99.90
33761;DHT22;20084;47.912;19.044;2023-07-22T04:33:59;17.40;99.90
33761;DHT22;20084;47.912;19.044;2023-07-22T04:36:24;17.50;99.90
33761;DHT22;20084;47.912;19.044;2023-07-22T04:38:50;17.50;99.90
33761;DHT22;20084;47.912;19.044;2023-07-22T04:41:15;17.60;99.90
33761;DHT22;20084;47.912;19.044;2023-07-22T04:43:41;17.60;99.90
33761;DHT22;20084;47.912;19.044;2023-07-22T04:46:06;17.60;99.90
33761;DHT22;20084;47.912;19.044;2023-07-22T04:48:33;17.60;99.90
33761;DHT22;20084;47.912;19.044;2023-07-22T04:50:58;17.70;99.90
33761;DHT22;20084;47.912;19.044;2023-07-22T04:53:24;17.70;99.90
33761;DHT22;20084;47.912;19.044;2023-07-22T04:55:49;17.70;99.90
33761;DHT22;20084;47.912;19.044;2023-07-22T04:58:15;17.80;99.90
33761;DHT22;20084;47.912;19.044;2023-07-22T05:00:40;17.80;99.90
33761;DHT22;20084;47.912;19.044;2023-07-22T05:03:07;17.90;99.90
33761;DHT22;20084;47.912;19.044;2023-07-22T05:05:33;17.90;99.90
33761;DHT22;20084;47.912;19.044;2023-07-22T05:07:59;17.90;99.90
33761;DHT22;20084;47.912;19.044;2023-07-22T05:10:24;17.90;99.90
33761;DHT22;20084;47.912;19.044;2023-07-22T05:12:50;18.00;99.90
33761;DHT22;20084;47.912;19.044;2023-07-22T05:15:15;18.00;99.90
33761;DHT22;20084;47.912;19.044;2023-07-22T05:17:41;18.00;99.90
33761;DHT22;20084;47.912;19.044;2023-07-22T05:20:06;18.00;99.90
33761;DHT22;20084;47.912;19.044;2023-07-22T05:22:35;18.10;99.90
33761;DHT22;20084;47.912;19.044;2023-07-22T05:25:01;18.10;99.90
33761;DHT22;20084;47.912;19.044;2023-07-22T05:27:26;18.10;99.90
33761;DHT22;20084;47.912;19.044;2023-07-22T05:29:52;18.20;99.90
33761;DHT22;20084;47.912;19.044;2023-07-22T05:32:18;18.30;99.90
33761;DHT22;20084;47.912;19.044;2023-07-22T05:34:43;18.30;99.90
33761;DHT22;20084;47.912;19.044;2023-07-22T05:37:09;18.40;99.90
33761;DHT22;20084;47.912;19.044;2023-07-22T05:39:34;18.50;99.90
33761;DHT22;20084;47.912;19.044;2023-07-22T05:41:59;18.60;99.90
33761;DHT22;20084;47.912;19.044;2023-07-22T05:44:25;18.70;99.90
33761;DHT22;20084;47.912;19.044;2023-07-22T05:46:51;18.80;99.90
33761;DHT22;20084;47.912;19.044;2023-07-22T05:49:16;18.90;99.90
33761;DHT22;20084;47.912;19.044;2023-07-22T05:51:42;19.00;99.90
33761;DHT22;20084;47.912;19.044;2023-07-22T05:54:07;19.10;99.90
33761;DHT22;20084;47.912;19.044;2023-07-22T05:56:33;19.30;99.90
33761;DHT22;20084;47.912;19.044;2023-07-22T05:58:58;19.40;99.90
33761;DHT22;20084;47.912;19.044;2023-07-22T06:01:24;19.60;99.90
33761;DHT22;20084;47.912;19.044;2023-07-22T06:03:50;19.70;99.90
33761;DHT22;20084;47.912;19.044;2023-07-22T06:06:15;19.80;99.90
33761;DHT22;20084;47.912;19.044;2023-07-22T06:08:41;19.90;99.90
33761;DHT22;20084;47.912;19.044;2023-07-22T06:11:06;20.00;99.90
33761;DHT22;20084;47.912;19.044;2023-07-22T06:13:32;20.10;99.90
33761;DHT22;20084;47.912;19.044;2023-07-22T06:15:57;20.20;99.90
33761;DHT22;20084;47.912;19.044;2023-07-22T06:18:23;20.30;99.90
33761;DHT22;20084;47.912;19.044;2023-07-22T06:20:49;20.40;99.90
33761;DHT22;20084;47.912;19.044;2023-07-22T06:23:14;20.50;99.90
33761;DHT22;20084;47.912;19.044;2023-07-22T06:25:40;20.60;99.90
33761;DHT22;20084;47.912;19.044;2023-07-22T06:28:05;20.70;99.90
33761;DHT22;20084;47.912;19.044;2023-07-22T06:30:31;20.70;99.90
33761;DHT22;20084;47.912;19.044;2023-07-22T06:32:57;20.70;99.90
33761;DHT22;20084;47.912;19.044;2023-07-22T06:35:23;20.80;99.90
33761;DHT22;20084;47.912;19.044;2023-07-22T06:37:48;20.90;99.90
33761;DHT22;20084;47.912;19.044;2023-07-22T06:40:14;21.00;99.90
33761;DHT22;20084;47.912;19.044;2023-07-22T06:42:39;21.00;99.90
33761;DHT22;20084;47.912;19.044;2023-07-22T06:45:05;21.20;99.90
33761;DHT22;20084;47.912;19.044;2023-07-22T06:47:30;21.20;99.90
33761;DHT22;20084;47.912;19.044;2023-07-22T06:49:56;21.30;99.90
33761;DHT22;20084;47.912;19.044;2023-07-22T06:52:22;21.40;99.90
33761;DHT22;20084;47.912;19.044;2023-07-22T06:54:47;21.40;99.90
33761;DHT22;20084;47.912;19.044;2023-07-22T06:57:13;21.50;99.90
33761;DHT22;20084;47.912;19.044;2023-07-22T06:59:38;21.60;99.90
33761;DHT22;20084;47.912;19.044;2023-07-22T07:02:04;21.70;99.90
33761;DHT22;20084;47.912;19.044;2023-07-22T07:04:32;21.70;99.90
33761;DHT22;20084;47.912;19.044;2023-07-22T07:06:58;21.70;99.90
33761;DHT22;20084;47.912;19.044;2023-07-22T07:09:24;21.70;99.90
33761;DHT22;20084;47.912;19.044;2023-07-22T07:11:50;21.70;99.90
33761;DHT22;20084;47.912;19.044;2023-07-22T07:14:17;21.90;99.90
33761;DHT22;20084;47.912;19.044;2023-07-22T07:16:43;22.10;99.90
33761;DHT22;20084;47.912;19.044;2023-07-22T07:19:08;22.20;99.90
33761;DHT22;20084;47.912;19.044;2023-07-22T07:21:34;22.30;99.90
33761;DHT22;20084;47.912;19.044;2023-07-22T07:23:59;22.40;99.90
33761;DHT22;20084;47.912;19.044;2023-07-22T07:26:25;22.60;99.90
33761;DHT22;20084;47.912;19.044;2023-07-22T07:28:51;22.70;99.90
33761;DHT22;20084;47.912;19.044;2023-07-22T07:31:17;22.80;99.90
33761;DHT22;20084;47.912;19.044;2023-07-22T07:33:42;23.00;99.90
33761;DHT22;20084;47.912;19.044;2023-07-22T07:36:08;23.00;99.90
33761;DHT22;20084;47.912;19.044;2023-07-22T07:38:33;22.90;99.90
33761;DHT22;20084;47.912;19.044;2023-07-22T07:40:59;22.80;99.90
33761;DHT22;20084;47.912;19.044;2023-07-22T07:43:25;22.60;99.90
33761;DHT22;20084;47.912;19.044;2023-07-22T07:46:11;22.50;99.90
33761;DHT22;20084;47.912;19.044;2023-07-22T07:48:37;22.40;99.90
33761;DHT22;20084;47.912;19.044;2023-07-22T07:51:02;22.30;99.90
33761;DHT22;20084;47.912;19.044;2023-07-22T07:53:28;22.20;99.90
33761;DHT22;20084;47.912;19.044;2023-07-22T07:55:53;22.30;99.90
33761;DHT22;20084;47.912;19.044;2023-07-22T07:58:19;22.30;99.90
33761;DHT22;20084;47.912;19.044;2023-07-22T08:00:44;22.40;99.90
33761;DHT22;20084;47.912;19.044;2023-07-22T08:03:10;22.40;99.90
33761;DHT22;20084;47.912;19.044;2023-07-22T08:05:36;22.30;99.90
33761;DHT22;20084;47.912;19.044;2023-07-22T08:08:01;22.30;99.90
33761;DHT22;20084;47.912;19.044;2023-07-22T08:10:27;22.30;99.90
33761;DHT22;20084;47.912;19.044;2023-07-22T08:12:52;22.30;99.90
33761;DHT22;20084;47.912;19.044;2023-07-22T08:15:18;22.40;99.90
33761;DHT22;20084;47.912;19.044;2023-07-22T08:17:44;22.60;99.90
33761;DHT22;20084;47.912;19.044;2023-07-22T08:20:09;22.60;99.90
33761;DHT22;20084;47.912;19.044;2023-07-22T08:22:35;22.50;99.90
33761;DHT22;20084;47.912;19.044;2023-07-22T08:25:01;22.50;99.90
33761;DHT22;20084;47.912;19.044;2023-07-22T08:27:26;22.50;99.90
33761;DHT22;20084;47.912;19.044;2023-07-22T08:29:52;22.50;99.90
33761;DHT22;20084;47.912;19.044;2023-07-22T08:32:17;22.60;99.90
33761;DHT22;20084;47.912;19.044;2023-07-22T08:34:43;22.60;99.90
33761;DHT22;20084;47.912;19.044;2023-07-22T08:37:08;22.80;99.90
33761;DHT22;20084;47.912;19.044;2023-07-22T08:39:34;22.90;99.90
33761;DHT22;20084;47.912;19.044;2023-07-22T08:42:00;22.90;99.90
33761;DHT22;20084;47.912;19.044;2023-07-22T08:44:28;23.00;99.90
33761;DHT22;20084;47.912;19.044;2023-07-22T08:46:55;22.90;99.90
33761;DHT22;20084;47.912;19.044;2023-07-22T08:49:22;22.90;99.90
33761;DHT22;20084;47.912;19.044;2023-07-22T08:51:48;23.00;99.90
33761;DHT22;20084;47.912;19.044;2023-07-22T08:54:14;23.10;99.90
33761;DHT22;20084;47.912;19.044;2023-07-22T08:56:39;23.10;99.90
33761;DHT22;20084;47.912;19.044;2023-07-22T08:59:05;23.10;99.90
33761;DHT22;20084;47.912;19.044;2023-07-22T09:01:31;23.00;99.90
33761;DHT22;20084;47.912;19.044;2023-07-22T09:03:57;23.10;99.90
33761;DHT22;20084;47.912;19.044;2023-07-22T09:06:23;23.10;99.90
33761;DHT22;20084;47.912;19.044;2023-07-22T09:08:49;23.20;99.90
33761;DHT22;20084;47.912;19.044;2023-07-22T09:11:15;23.30;99.90
33761;DHT22;20084;47.912;19.044;2023-07-22T09:13:41;23.30;99.90
33761;DHT22;20084;47.912;19.044;2023-07-22T09:16:09;23.40;99.90
33761;DHT22;20084;47.912;19.044;2023-07-22T09:18:35;23.40;99.90
33761;DHT22;20084;47.912;19.044;2023-07-22T09:21:01;23.40;99.90
33761;DHT22;20084;47.912;19.044;2023-07-22T09:23:36;23.40;99.90
33761;DHT22;20084;47.912;19.044;2023-07-22T09:26:09;23.60;99.90
33761;DHT22;20084;47.912;19.044;2023-07-22T09:28:47;23.60;99.90
33761;DHT22;20084;47.912;19.044;2023-07-22T09:31:13;23.50;99.90
33761;DHT22;20084;47.912;19.044;2023-07-22T09:33:38;23.50;99.90
33761;DHT22;20084;47.912;19.044;2023-07-22T09:36:04;23.60;99.90
33761;DHT22;20084;47.912;19.044;2023-07-22T09:38:29;23.60;99.90
33761;DHT22;20084;47.912;19.044;2023-07-22T09:40:55;23.70;99.90
33761;DHT22;20084;47.912;19.044;2023-07-22T09:43:21;23.70;99.90
33761;DHT22;20084;47.912;19.044;2023-07-22T09:45:48;23.70;99.90
33761;DHT22;20084;47.912;19.044;2023-07-22T09:48:14;23.70;99.90
33761;DHT22;20084;47.912;19.044;2023-07-22T09:50:39;23.70;99.90
33761;DHT22;20084;47.912;19.044;2023-07-22T09:53:05;23.70;99.90
33761;DHT22;20084;47.912;19.044;2023-07-22T09:55:32;23.80;99.90
33761;DHT22;20084;47.912;19.044;2023-07-22T09:58:06;23.90;99.90
33761;DHT22;20084;47.912;19.044;2023-07-22T10:00:35;24.10;99.90
33761;DHT22;20084;47.912;19.044;2023-07-22T10:03:01;24.20;99.90
33761;DHT22;20084;47.912;19.044;2023-07-22T10:05:27;24.20;99.90
33761;DHT22;20084;47.912;19.044;2023-07-22T10:07:55;24.20;99.90
33761;DHT22;20084;47.912;19.044;2023-07-22T10:10:22;24.20;99.90
33761;DHT22;20084;47.912;19.044;2023-07-22T10:12:48;24.40;99.90
33761;DHT22;20084;47.912;19.044;2023-07-22T10:15:14;24.30;99.90
33761;DHT22;20084;47.912;19.044;2023-07-22T10:17:41;24.30;99.90
33761;DHT22;20084;47.912;19.044;2023-07-22T10:20:07;24.20;99.90
33761;DHT22;20084;47.912;19.044;2023-07-22T10:22:34;24.20;99.90
33761;DHT22;20084;47.912;19.044;2023-07-22T10:25:00;24.30;99.90
33761;DHT22;20084;47.912;19.044;2023-07-22T10:27:26;24.40;99.90
33761;DHT22;20084;47.912;19.044;2023-07-22T10:29:53;24.40;99.90
33761;DHT22;20084;47.912;19.044;2023-07-22T10:32:19;24.40;99.90
33761;DHT22;20084;47.912;19.044;2023-07-22T10:34:44;24.20;99.90
33761;DHT22;20084;47.912;19.044;2023-07-22T10:37:10;24.10;99.90
33761;DHT22;20084;47.912;19.044;2023-07-22T10:39:38;24.10;99.90
33761;DHT22;20084;47.912;19.044;2023-07-22T10:42:04;24.20;99.90
33761;DHT22;20084;47.912;19.044;2023-07-22T10:44:33;24.20;99.90
33761;DHT22;20084;47.912;19.044;2023-07-22T10:47:01;24.30;99.90
33761;DHT22;20084;47.912;19.044;2023-07-22T10:49:42;24.30;99.90
33761;DHT22;20084;47.912;19.044;2023-07-22T10:52:09;24.40;99.90
33761;DHT22;20084;47.912;19.044;2023-07-22T10:54:36;24.50;99.90
33761;DHT22;20084;47.912;19.044;2023-07-22T10:59:39;24.50;99.90
33761;DHT22;20084;47.912;19.044;2023-07-22T11:02:22;24.60;99.90
33761;DHT22;20084;47.912;19.044;2023-07-22T11:04:48;24.80;99.90
33761;DHT22;20084;47.912;19.044;2023-07-22T11:07:13;24.80;99.90
33761;DHT22;20084;47.912;19.044;2023-07-22T11:09:39;24.80;99.90
33761;DHT22;20084;47.912;19.044;2023-07-22T11:12:09;24.90;99.90
33761;DHT22;20084;47.912;19.044;2023-07-22T11:14:39;24.90;99.90
33761;DHT22;20084;47.912;19.044;2023-07-22T11:17:06;24.80;99.90
33761;DHT22;20084;47.912;19.044;2023-07-22T11:19:36;24.70;99.90
33761;DHT22;20084;47.912;19.044;2023-07-22T11:22:02;24.60;99.90
33761;DHT22;20084;47.912;19.044;2023-07-22T11:24:28;24.60;99.90
33761;DHT22;20084;47.912;19.044;2023-07-22T11:26:54;24.80;99.90
33761;DHT22;20084;47.912;19.044;2023-07-22T11:29:19;24.70;99.90
33761;DHT22;20084;47.912;19.044;2023-07-22T11:31:46;24.70;99.90
33761;DHT22;20084;47.912;19.044;2023-07-22T11:34:15;24.80;99.90
33761;DHT22;20084;47.912;19.044;2023-07-22T11:36:41;24.90;99.30
33761;DHT22;20084;47.912;19.044;2023-07-22T11:39:27;25.00;99.90
33761;DHT22;20084;47.912;19.044;2023-07-22T11:41:56;25.10;99.40
33761;DHT22;20084;47.912;19.044;2023-07-22T11:44:26;25.10;99.50
33761;DHT22;20084;47.912;19.044;2023-07-22T11:51:51;25.40;99.90
33761;DHT22;20084;47.912;19.044;2023-07-22T11:54:16;25.40;98.80
33761;DHT22;20084;47.912;19.044;2023-07-22T11:56:42;25.30;98.90
33761;DHT22;20084;47.912;19.044;2023-07-22T11:59:08;25.40;99.90
33761;DHT22;20084;47.912;19.044;2023-07-22T12:01:33;25.50;99.90
33761;DHT22;20084;47.912;19.044;2023-07-22T12:03:59;25.60;99.90
33761;DHT22;20084;47.912;19.044;2023-07-22T12:06:25;25.60;99.90
33761;DHT22;20084;47.912;19.044;2023-07-22T12:08:51;25.60;98.30
33761;DHT22;20084;47.912;19.044;2023-07-22T12:11:17;25.60;98.60
33761;DHT22;20084;47.912;19.044;2023-07-22T12:13:43;25.60;97.60
33761;DHT22;20084;47.912;19.044;2023-07-22T12:16:12;25.60;97.20
33761;DHT22;20084;47.912;19.044;2023-07-22T12:18:44;25.60;99.30
33761;DHT22;20084;47.912;19.044;2023-07-22T12:21:09;25.70;98.70
33761;DHT22;20084;47.912;19.044;2023-07-22T12:23:35;25.80;98.80
33761;DHT22;20084;47.912;19.044;2023-07-22T12:26:01;25.90;95.90
33761;DHT22;20084;47.912;19.044;2023-07-22T12:28:27;25.80;95.40
33761;DHT22;20084;47.912;19.044;2023-07-22T12:30:52;25.70;94.30
33761;DHT22;20084;47.912;19.044;2023-07-22T12:33:18;25.70;95.90
33761;DHT22;20084;47.912;19.044;2023-07-22T12:35:43;25.80;94.30
33761;DHT22;20084;47.912;19.044;2023-07-22T12:38:09;25.80;94.10
33761;DHT22;20084;47.912;19.044;2023-07-22T12:40:34;25.90;93.20
33761;DHT22;20084;47.912;19.044;2023-07-22T12:43:00;26.00;93.30
33761;DHT22;20084;47.912;19.044;2023-07-22T12:45:25;26.10;93.60
33761;DHT22;20084;47.912;19.044;2023-07-22T12:47:51;26.00;93.80
33761;DHT22;20084;47.912;19.044;2023-07-22T12:50:16;25.90;92.70
33761;DHT22;20084;47.912;19.044;2023-07-22T12:52:42;25.90;91.60
33761;DHT22;20084;47.912;19.044;2023-07-22T12:55:07;25.90;92.50
33761;DHT22;20084;47.912;19.044;2023-07-22T12:57:33;25.90;93.80
33761;DHT22;20084;47.912;19.044;2023-07-22T12:59:58;26.10;94.10
33761;DHT22;20084;47.912;19.044;2023-07-22T13:02:24;26.10;92.60
33761;DHT22;20084;47.912;19.044;2023-07-22T13:04:50;26.10;90.20
33761;DHT22;20084;47.912;19.044;2023-07-22T13:07:16;26.10;92.50
33761;DHT22;20084;47.912;19.044;2023-07-22T13:09:41;26.10;90.20
33761;DHT22;20084;47.912;19.044;2023-07-22T13:12:08;26.10;90.70
33761;DHT22;20084;47.912;19.044;2023-07-22T13:14:34;26.20;93.50
33761;DHT22;20084;47.912;19.044;2023-07-22T13:16:59;26.40;92.40
33761;DHT22;20084;47.912;19.044;2023-07-22T13:19:25;26.40;93.50
33761;DHT22;20084;47.912;19.044;2023-07-22T13:21:50;26.50;91.50
33761;DHT22;20084;47.912;19.044;2023-07-22T13:24:16;26.50;86.90
33761;DHT22;20084;47.912;19.044;2023-07-22T13:26:41;26.40;91.00
33761;DHT22;20084;47.912;19.044;2023-07-22T13:29:07;26.50;92.10
33761;DHT22;20084;47.912;19.044;2023-07-22T13:31:34;26.60;90.80
33761;DHT22;20084;47.912;19.044;2023-07-22T13:33:59;26.70;91.60
33761;DHT22;20084;47.912;19.044;2023-07-22T13:36:25;26.80;90.80
33761;DHT22;20084;47.912;19.044;2023-07-22T13:38:50;26.80;89.60
33761;DHT22;20084;47.912;19.044;2023-07-22T13:41:16;26.70;85.50
33761;DHT22;20084;47.912;19.044;2023-07-22T13:43:41;26.70;82.90
33761;DHT22;20084;47.912;19.044;2023-07-22T13:46:07;26.60;85.40
33761;DHT22;20084;47.912;19.044;2023-07-22T13:48:33;26.60;83.70
33761;DHT22;20084;47.912;19.044;2023-07-22T13:50:59;26.50;78.10
33761;DHT22;20084;47.912;19.044;2023-07-22T13:53:24;26.40;87.40
33761;DHT22;20084;47.912;19.044;2023-07-22T13:55:50;26.50;82.60
33761;DHT22;20084;47.912;19.044;2023-07-22T13:58:15;26.50;87.00
33761;DHT22;20084;47.912;19.044;2023-07-22T14:00:41;26.60;84.60
33761;DHT22;20084;47.912;19.044;2023-07-22T14:03:06;26.60;88.30
33761;DHT22;20084;47.912;19.044;2023-07-22T14:05:32;26.70;84.60
33761;DHT22;20084;47.912;19.044;2023-07-22T14:07:58;26.70;86.30
33761;DHT22;20084;47.912;19.044;2023-07-22T14:10:23;26.70;81.20
33761;DHT22;20084;47.912;19.044;2023-07-22T14:12:49;26.60;86.10
33761;DHT22;20084;47.912;19.044;2023-07-22T14:15:14;26.60;81.40
33761;DHT22;20084;47.912;19.044;2023-07-22T14:17:40;26.50;81.30
33761;DHT22;20084;47.912;19.044;2023-07-22T14:20:05;26.40;80.00
33761;DHT22;20084;47.912;19.044;2023-07-22T14:22:32;26.40;83.30
33761;DHT22;20084;47.912;19.044;2023-07-22T14:24:57;26.40;78.70
33761;DHT22;20084;47.912;19.044;2023-07-22T14:27:23;26.40;82.90
33761;DHT22;20084;47.912;19.044;2023-07-22T14:29:48;26.40;84.30
33761;DHT22;20084;47.912;19.044;2023-07-22T14:32:14;26.50;84.20
33761;DHT22;20084;47.912;19.044;2023-07-22T14:34:42;26.60;83.50
33761;DHT22;20084;47.912;19.044;2023-07-22T14:37:07;26.50;79.70
33761;DHT22;20084;47.912;19.044;2023-07-22T14:39:33;26.40;79.00
33761;DHT22;20084;47.912;19.044;2023-07-22T14:41:59;26.40;79.10
33761;DHT22;20084;47.912;19.044;2023-07-22T14:44:24;26.50;82.70
33761;DHT22;20084;47.912;19.044;2023-07-22T14:46:50;26.60;88.00
33761;DHT22;20084;47.912;19.044;2023-07-22T14:49:15;26.70;86.50
33761;DHT22;20084;47.912;19.044;2023-07-22T14:51:41;26.70;85.30
33761;DHT22;20084;47.912;19.044;2023-07-22T14:54:06;26.80;89.20
33761;DHT22;20084;47.912;19.044;2023-07-22T14:56:34;26.80;80.80
33761;DHT22;20084;47.912;19.044;2023-07-22T14:58:59;26.80;83.70
33761;DHT22;20084;47.912;19.044;2023-07-22T15:01:25;26.80;83.80
33761;DHT22;20084;47.912;19.044;2023-07-22T15:03:50;26.80;81.10
33761;DHT22;20084;47.912;19.044;2023-07-22T15:06:16;26.80;84.30
33761;DHT22;20084;47.912;19.044;2023-07-22T15:08:43;26.80;82.50
33761;DHT22;20084;47.912;19.044;2023-07-22T15:11:08;26.80;86.10
33761;DHT22;20084;47.912;19.044;2023-07-22T15:13:34;26.80;80.80
33761;DHT22;20084;47.912;19.044;2023-07-22T15:15:59;26.80;86.10